createdAt,value
2022-12-23T00:02:09.022Z,100.00
2022-12-23T00:04:56.407Z,100.00
2022-12-23T00:07:45.081Z,100.00
2022-12-23T00:10:33.010Z,100.00
2022-12-23T00:13:38.064Z,100.00
2022-12-23T00:16:25.495Z,100.00
2022-12-23T00:19:14.451Z,100.00
2022-12-23T00:22:01.898Z,100.00
2022-12-23T00:24:50.087Z,100.00
2022-12-23T00:27:37.909Z,100.00
2022-12-23T00:30:25.639Z,100.00
2022-12-23T00:33:13.150Z,100.00
2022-12-23T00:36:02.753Z,100.00
2022-12-23T00:39:08.291Z,100.00
2022-12-23T00:42:13.102Z,100.00
2022-12-23T00:45:16.092Z,100.00
2022-12-23T00:48:20.821Z,100.00
2022-12-23T00:51:09.783Z,100.00
2022-12-23T00:53:57.325Z,100.00
2022-12-23T00:56:44.983Z,100.00
2022-12-23T00:59:32.546Z,100.00
2022-12-23T01:02:37.606Z,100.00
2022-12-23T01:05:40.692Z,100.00
2022-12-23T01:08:30.472Z,100.00
2022-12-23T01:11:18.098Z,100.00
2022-12-23T01:14:05.764Z,100.00
2022-12-23T01:16:53.427Z,100.00
2022-12-23T01:19:41.377Z,100.00
2022-12-23T01:22:28.982Z,100.00
2022-12-23T01:25:18.251Z,100.00
2022-12-23T01:28:05.951Z,100.00
2022-12-23T01:30:53.738Z,100.00
2022-12-23T01:33:41.268Z,100.00
2022-12-23T01:36:29.072Z,100.00
2022-12-23T01:39:16.714Z,100.00
2022-12-23T01:42:25.377Z,100.00
2022-12-23T01:45:18.471Z,100.00
2022-12-23T01:48:10.475Z,100.00
2022-12-23T01:51:04.354Z,100.00
2022-12-23T01:53:56.203Z,100.00
2022-12-23T01:56:43.662Z,100.00
2022-12-23T01:59:50.312Z,100.00
2022-12-23T02:02:57.495Z,100.00
2022-12-23T02:05:47.113Z,100.00
2022-12-23T02:08:52.302Z,100.00
2022-12-23T02:11:58.304Z,100.00
2022-12-23T02:15:19.699Z,100.00
2022-12-23T02:18:35.697Z,100.00
2022-12-23T02:21:39.862Z,100.00
2022-12-23T02:25:18.398Z,100.00
2022-12-23T02:28:30.118Z,100.00
2022-12-23T02:31:26.643Z,100.00
2022-12-23T02:34:20.710Z,100.00
2022-12-23T02:37:16.827Z,100.00
2022-12-23T02:40:11.557Z,100.00
2022-12-23T02:43:05.403Z,100.00
2022-12-23T02:46:00.202Z,100.00
2022-12-23T02:48:55.764Z,100.00
2022-12-23T02:51:47.179Z,100.00
2022-12-23T02:54:40.380Z,100.00
2022-12-23T02:57:33.848Z,100.00
2022-12-23T03:00:22.650Z,100.00
2022-12-23T03:03:10.362Z,100.00
2022-12-23T03:05:59.726Z,100.00
2022-12-23T03:08:47.663Z,100.00
2022-12-23T03:11:46.277Z,100.00
2022-12-23T03:14:58.364Z,100.00
2022-12-23T03:17:59.543Z,100.00
2022-12-23T03:20:55.093Z,100.00
2022-12-23T03:23:51.980Z,100.00
2022-12-23T03:26:50.991Z,100.00
2022-12-23T03:29:44.207Z,100.00
2022-12-23T03:32:38.484Z,100.00
2022-12-23T03:35:32.543Z,100.00
2022-12-23T03:38:20.569Z,100.00
2022-12-23T03:41:15.403Z,100.00
2022-12-23T03:44:08.266Z,100.00
2022-12-23T03:47:00.521Z,100.00
2022-12-23T03:49:53.666Z,100.00
2022-12-23T03:52:47.329Z,100.00
2022-12-23T03:55:38.096Z,100.00
2022-12-23T03:58:36.770Z,100.00
2022-12-23T04:01:35.289Z,100.00
2022-12-23T04:04:27.443Z,100.00
2022-12-23T04:07:18.997Z,100.00
2022-12-23T04:10:09.401Z,100.00
2022-12-23T04:12:57.186Z,100.00
2022-12-23T04:15:46.517Z,100.00
2022-12-23T04:18:34.281Z,100.00
2022-12-23T04:21:21.469Z,100.00
2022-12-23T04:24:09.153Z,100.00
2022-12-23T04:26:56.408Z,100.00
2022-12-23T04:29:44.092Z,100.00
2022-12-23T04:32:33.361Z,100.00
2022-12-23T04:35:21.407Z,100.00
2022-12-23T04:38:12.158Z,100.00
2022-12-23T04:41:00.330Z,100.00
2022-12-23T04:43:52.771Z,100.00
2022-12-23T04:46:40.928Z,100.00
2022-12-23T04:49:30.141Z,100.00
2022-12-23T04:52:17.369Z,100.00
2022-12-23T04:55:05.089Z,100.00
2022-12-23T04:57:52.329Z,100.00
2022-12-23T05:00:40.273Z,100.00
2022-12-23T05:03:27.725Z,100.00
2022-12-23T05:06:16.478Z,100.00
2022-12-23T05:09:04.059Z,100.00
2022-12-23T05:11:51.856Z,100.00
2022-12-23T05:14:39.249Z,100.00
2022-12-23T05:17:27.010Z,100.00
2022-12-23T05:20:14.730Z,100.00
2022-12-23T05:23:04.071Z,100.00
2022-12-23T05:25:53.312Z,100.00
2022-12-23T05:28:40.938Z,100.00
2022-12-23T05:31:28.439Z,100.00
2022-12-23T05:34:16.327Z,100.00
2022-12-23T05:37:03.695Z,100.00
2022-12-23T05:39:54.826Z,100.00
2022-12-23T05:42:42.596Z,100.00
2022-12-23T05:45:30.329Z,100.00
2022-12-23T05:48:18.768Z,100.00
2022-12-23T05:51:06.830Z,100.00
2022-12-23T05:53:54.102Z,100.00
2022-12-23T05:56:42.984Z,100.00
2022-12-23T05:59:31.490Z,100.00
2022-12-23T06:02:22.337Z,100.00
2022-12-23T06:05:11.347Z,100.00
2022-12-23T06:07:58.985Z,100.00
2022-12-23T06:10:46.143Z,100.00
2022-12-23T06:13:35.070Z,100.00
2022-12-23T06:16:22.501Z,100.00
2022-12-23T06:19:11.381Z,100.00
2022-12-23T06:21:59.075Z,100.00
2022-12-23T06:24:46.535Z,100.00
2022-12-23T06:27:33.987Z,100.00
2022-12-23T06:30:22.764Z,100.00
2022-12-23T06:33:12.443Z,100.00
2022-12-23T06:35:59.986Z,100.00
2022-12-23T06:38:47.487Z,100.00
2022-12-23T06:41:35.110Z,100.00
2022-12-23T06:44:22.315Z,100.00
2022-12-23T06:47:11.628Z,100.00
2022-12-23T06:49:59.395Z,100.00
2022-12-23T06:52:46.975Z,100.00
2022-12-23T06:55:34.549Z,100.00
2022-12-23T06:58:22.308Z,100.00
2022-12-23T07:01:10.303Z,100.00
2022-12-23T07:03:59.624Z,100.00
2022-12-23T07:06:46.714Z,100.00
2022-12-23T07:09:35.197Z,100.00
2022-12-23T07:12:22.423Z,100.00
2022-12-23T07:15:10.843Z,100.00
2022-12-23T07:17:58.446Z,100.00
2022-12-23T07:20:47.101Z,100.00
2022-12-23T07:23:34.545Z,100.00
2022-12-23T07:26:22.133Z,100.00
2022-12-23T07:29:09.645Z,100.00
2022-12-23T07:31:57.197Z,100.00
2022-12-23T07:34:44.970Z,100.00
2022-12-23T07:37:33.897Z,100.00
2022-12-23T07:40:21.803Z,100.00
2022-12-23T07:43:09.199Z,100.00
2022-12-23T07:46:00.355Z,100.00
2022-12-23T07:48:48.857Z,100.00
2022-12-23T07:51:36.371Z,100.00
2022-12-23T07:54:25.305Z,100.00
2022-12-23T07:57:13.925Z,100.00
2022-12-23T08:00:01.245Z,100.00
2022-12-23T08:02:49.270Z,100.00
2022-12-23T08:05:37.136Z,100.00
2022-12-23T08:08:24.569Z,100.00
2022-12-23T08:11:14.959Z,100.00
2022-12-23T08:14:02.714Z,100.00
2022-12-23T08:16:50.428Z,100.00
2022-12-23T08:19:38.984Z,100.00
2022-12-23T08:22:26.799Z,100.00
2022-12-23T08:25:14.535Z,100.00
2022-12-23T08:28:03.610Z,100.00
2022-12-23T08:30:51.087Z,100.00
2022-12-23T08:33:40.026Z,100.00
2022-12-23T08:36:30.384Z,100.00
2022-12-23T08:39:19.169Z,100.00
2022-12-23T08:42:07.113Z,100.00
2022-12-23T08:44:56.086Z,100.00
2022-12-23T08:47:43.504Z,100.00
2022-12-23T08:50:31.349Z,100.00
2022-12-23T08:53:18.843Z,100.00
2022-12-23T08:56:08.334Z,100.00
2022-12-23T08:58:56.987Z,100.00
2022-12-23T09:01:46.226Z,100.00
2022-12-23T09:04:34.024Z,100.00
2022-12-23T09:07:21.556Z,100.00
2022-12-23T09:10:10.198Z,100.00
2022-12-23T09:12:58.253Z,100.00
2022-12-23T09:15:46.081Z,100.00
2022-12-23T09:18:35.979Z,100.00
2022-12-23T09:21:25.104Z,100.00
2022-12-23T09:24:12.776Z,100.00
2022-12-23T09:27:00.150Z,100.00
2022-12-23T09:29:47.439Z,100.00
2022-12-23T09:32:35.068Z,100.00
2022-12-23T09:35:23.875Z,100.00
2022-12-23T09:38:12.146Z,100.00
2022-12-23T09:41:04.653Z,100.00
2022-12-23T09:43:59.031Z,100.00
2022-12-23T09:46:52.921Z,100.00
2022-12-23T09:49:48.638Z,100.00
2022-12-23T09:52:44.477Z,100.00
2022-12-23T09:55:41.676Z,100.00
2022-12-23T09:58:33.776Z,100.00
2022-12-23T10:01:33.810Z,100.00
2022-12-23T10:04:41.007Z,100.00
2022-12-23T10:07:36.711Z,100.00
2022-12-23T10:10:34.996Z,100.00
2022-12-23T10:13:29.866Z,100.00
2022-12-23T10:16:20.782Z,100.00
2022-12-23T10:19:16.365Z,100.00
2022-12-23T10:22:06.452Z,100.00
2022-12-23T10:24:57.026Z,100.00
2022-12-23T10:27:46.439Z,100.00
2022-12-23T10:31:10.886Z,100.00
2022-12-23T10:33:52.606Z,100.00
2022-12-23T10:36:50.083Z,100.00
2022-12-23T10:39:44.916Z,100.00
2022-12-23T10:42:38.915Z,100.00
2022-12-23T10:45:45.042Z,100.00
2022-12-23T10:48:48.367Z,100.00
2022-12-23T10:51:46.757Z,100.00
2022-12-23T10:54:37.024Z,100.00
2022-12-23T10:57:26.175Z,100.00
2022-12-23T11:00:19.812Z,100.00
2022-12-23T11:03:18.411Z,100.00
2022-12-23T11:06:09.207Z,100.00
2022-12-23T11:08:58.037Z,100.00
2022-12-23T11:11:57.319Z,100.00
2022-12-23T11:14:53.177Z,100.00
2022-12-23T11:17:40.968Z,100.00
2022-12-23T11:20:31.407Z,100.00
2022-12-23T11:23:26.904Z,100.00
2022-12-23T11:26:20.023Z,100.00
2022-12-23T11:29:11.392Z,100.00
2022-12-23T11:31:59.711Z,100.00
2022-12-23T11:34:49.638Z,100.00
2022-12-23T11:37:43.407Z,100.00
2022-12-23T11:40:33.970Z,100.00
2022-12-23T11:43:24.587Z,100.00
2022-12-23T11:46:17.482Z,100.00
2022-12-23T11:49:16.584Z,100.00
2022-12-23T11:52:13.582Z,100.00
2022-12-23T11:55:04.511Z,100.00
2022-12-23T11:57:53.148Z,100.00
2022-12-23T12:00:44.174Z,100.00
2022-12-23T12:03:36.239Z,100.00
2022-12-23T12:06:25.077Z,100.00
2022-12-23T12:09:15.324Z,100.00
2022-12-23T12:12:09.108Z,100.00
2022-12-23T12:14:59.053Z,100.00
2022-12-23T12:17:52.544Z,100.00
2022-12-23T12:20:44.738Z,97.91
2022-12-23T12:23:41.898Z,97.48
2022-12-23T12:26:32.627Z,96.38
2022-12-23T12:29:29.137Z,96.76
2022-12-23T12:32:22.727Z,97.22
2022-12-23T12:35:16.509Z,98.68
2022-12-23T12:38:13.250Z,98.74
2022-12-23T12:41:08.666Z,100.00
2022-12-23T12:44:05.692Z,100.00
2022-12-23T12:47:00.146Z,99.89
2022-12-23T12:49:53.378Z,100.00
2022-12-23T12:52:43.420Z,100.00
2022-12-23T12:55:33.964Z,98.40
2022-12-23T12:58:23.757Z,98.80
2022-12-23T13:01:30.712Z,100.00
2022-12-23T13:05:02.781Z,100.00
2022-12-23T13:08:06.859Z,100.00
2022-12-23T13:11:01.996Z,100.00
2022-12-23T13:13:57.430Z,100.00
2022-12-23T13:16:53.084Z,100.00
2022-12-23T13:19:49.515Z,100.00
2022-12-23T13:22:38.784Z,100.00
2022-12-23T13:25:33.225Z,100.00
2022-12-23T13:28:32.545Z,100.00
2022-12-23T13:31:34.995Z,100.00
2022-12-23T13:34:34.095Z,100.00
2022-12-23T13:37:32.316Z,100.00
2022-12-23T13:40:38.202Z,100.00
2022-12-23T13:43:27.854Z,100.00
2022-12-23T13:46:28.270Z,100.00
2022-12-23T13:49:26.215Z,100.00
2022-12-23T13:52:17.588Z,100.00
2022-12-23T13:55:15.917Z,100.00
2022-12-23T13:58:12.320Z,100.00
2022-12-23T14:01:21.122Z,100.00
2022-12-23T14:04:37.067Z,100.00
2022-12-23T14:07:25.250Z,100.00
2022-12-23T14:10:21.865Z,100.00
2022-12-23T14:13:16.949Z,100.00
2022-12-23T14:16:24.343Z,100.00
2022-12-23T14:19:42.644Z,100.00
2022-12-23T14:22:41.850Z,100.00
2022-12-23T14:25:51.935Z,100.00
2022-12-23T14:28:55.723Z,100.00
2022-12-23T14:31:46.192Z,100.00
2022-12-23T14:34:36.424Z,100.00
2022-12-23T14:37:35.966Z,100.00
2022-12-23T14:41:00.783Z,100.00
2022-12-23T14:43:56.243Z,100.00
2022-12-23T14:46:59.672Z,100.00
2022-12-23T14:49:49.776Z,100.00
2022-12-23T14:53:01.510Z,100.00
2022-12-23T14:55:51.064Z,100.00
2022-12-23T14:58:56.076Z,100.00
2022-12-23T15:01:50.109Z,100.00
2022-12-23T15:04:49.127Z,100.00
2022-12-23T15:07:39.462Z,100.00
2022-12-23T15:10:29.191Z,100.00
2022-12-23T15:13:19.028Z,100.00
2022-12-23T15:16:08.801Z,100.00
2022-12-23T15:19:00.535Z,100.00
2022-12-23T15:21:54.465Z,100.00
2022-12-23T15:24:48.278Z,100.00
2022-12-23T15:27:38.475Z,100.00
2022-12-23T15:30:27.948Z,100.00
2022-12-23T15:34:00.219Z,100.00
2022-12-23T15:36:32.447Z,100.00
2022-12-23T15:39:22.425Z,100.00
2022-12-23T15:42:23.049Z,100.00
2022-12-23T15:45:33.790Z,100.00
2022-12-23T15:48:26.337Z,100.00
2022-12-23T15:51:30.551Z,100.00
2022-12-23T15:54:30.720Z,100.00
2022-12-23T15:57:22.121Z,100.00
2022-12-23T16:00:20.561Z,100.00
2022-12-23T16:03:20.588Z,100.00
2022-12-23T16:06:11.617Z,100.00
2022-12-23T16:09:02.724Z,100.00
2022-12-23T16:11:57.798Z,100.00
2022-12-23T16:14:54.056Z,100.00
2022-12-23T16:17:41.686Z,100.00
2022-12-23T16:20:29.520Z,100.00
2022-12-23T16:23:18.714Z,100.00
2022-12-23T16:26:06.612Z,100.00
2022-12-23T16:28:59.664Z,100.00
2022-12-23T16:31:55.837Z,100.00
2022-12-23T16:34:51.505Z,100.00
2022-12-23T16:37:38.957Z,100.00
2022-12-23T16:40:26.671Z,100.00
2022-12-23T16:43:14.592Z,100.00
2022-12-23T16:46:04.364Z,100.00
2022-12-23T16:48:55.509Z,100.00
2022-12-23T16:51:43.604Z,100.00
2022-12-23T16:54:31.239Z,100.00
2022-12-23T16:57:18.697Z,100.00
2022-12-23T17:00:07.970Z,100.00
2022-12-23T17:02:57.297Z,100.00
2022-12-23T17:05:45.975Z,100.00
2022-12-23T17:08:33.583Z,100.00
2022-12-23T17:11:26.255Z,100.00
2022-12-23T17:14:17.315Z,100.00
2022-12-23T17:17:14.371Z,100.00
2022-12-23T17:20:03.543Z,100.00
2022-12-23T17:22:54.302Z,100.00
2022-12-23T17:25:41.739Z,100.00
2022-12-23T17:28:32.432Z,100.00
2022-12-23T17:31:26.509Z,100.00
2022-12-23T17:34:17.414Z,100.00
2022-12-23T17:37:14.126Z,100.00
2022-12-23T17:40:01.808Z,100.00
2022-12-23T17:42:49.590Z,100.00
2022-12-23T17:45:37.550Z,100.00
2022-12-23T17:48:31.114Z,100.00
2022-12-23T17:51:20.839Z,100.00
2022-12-23T17:54:21.841Z,100.00
2022-12-23T17:57:19.166Z,100.00
2022-12-23T18:00:08.634Z,100.00
2022-12-23T18:02:59.284Z,100.00
2022-12-23T18:05:46.795Z,100.00
2022-12-23T18:08:34.368Z,100.00
2022-12-23T18:11:28.840Z,100.00
2022-12-23T18:14:19.464Z,100.00
2022-12-23T18:17:07.333Z,100.00
2022-12-23T18:19:55.046Z,100.00
2022-12-23T18:22:42.803Z,100.00
2022-12-23T18:25:30.625Z,100.00
2022-12-23T18:28:19.511Z,100.00
2022-12-23T18:31:07.025Z,100.00
2022-12-23T18:33:54.642Z,100.00
2022-12-23T18:36:42.483Z,100.00
2022-12-23T18:39:30.097Z,100.00
2022-12-23T18:42:19.135Z,100.00
2022-12-23T18:45:26.101Z,100.00
2022-12-23T18:48:13.664Z,100.00
2022-12-23T18:51:01.502Z,100.00
2022-12-23T18:53:49.663Z,100.00
2022-12-23T18:56:37.322Z,100.00
2022-12-23T18:59:29.828Z,100.00
2022-12-23T19:02:19.378Z,100.00
2022-12-23T19:05:08.193Z,100.00
2022-12-23T19:07:57.437Z,100.00
2022-12-23T19:10:48.174Z,100.00
2022-12-23T19:13:35.913Z,100.00
2022-12-23T19:16:23.690Z,100.00
2022-12-23T19:19:13.046Z,100.00
2022-12-23T19:22:02.046Z,100.00
2022-12-23T19:25:04.612Z,100.00
2022-12-23T19:27:53.628Z,100.00
2022-12-23T19:30:42.807Z,100.00
2022-12-23T19:33:30.407Z,100.00
2022-12-23T19:36:22.826Z,100.00
2022-12-23T19:39:16.686Z,100.00
2022-12-23T19:42:05.906Z,100.00
2022-12-23T19:44:53.777Z,100.00
2022-12-23T19:47:41.695Z,100.00
2022-12-23T19:50:30.786Z,100.00
2022-12-23T19:53:19.767Z,100.00
2022-12-23T19:56:10.191Z,100.00
2022-12-23T19:58:57.816Z,100.00
2022-12-23T20:01:47.292Z,100.00
2022-12-23T20:04:36.187Z,100.00
2022-12-23T20:07:23.836Z,100.00
2022-12-23T20:10:13.517Z,100.00
2022-12-23T20:13:01.263Z,100.00
2022-12-23T20:15:49.044Z,100.00
2022-12-23T20:18:37.124Z,100.00
2022-12-23T20:21:25.449Z,100.00
2022-12-23T20:24:13.241Z,100.00
2022-12-23T20:27:05.096Z,100.00
2022-12-23T20:29:55.486Z,100.00
2022-12-23T20:32:43.408Z,100.00
2022-12-23T20:35:32.296Z,100.00
2022-12-23T20:38:20.126Z,100.00
2022-12-23T20:41:08.167Z,100.00
2022-12-23T20:44:31.741Z,100.00
2022-12-23T20:47:04.781Z,100.00
2022-12-23T20:49:55.843Z,100.00
2022-12-23T20:52:43.539Z,100.00
2022-12-23T20:55:33.179Z,100.00
2022-12-23T20:58:41.136Z,100.00
2022-12-23T21:01:32.378Z,100.00
2022-12-23T21:04:20.720Z,100.00
2022-12-23T21:07:08.289Z,100.00
2022-12-23T21:09:55.977Z,100.00
2022-12-23T21:12:43.380Z,100.00
2022-12-23T21:15:32.946Z,100.00
2022-12-23T21:18:22.003Z,100.00
2022-12-23T21:21:09.579Z,100.00
2022-12-23T21:24:00.487Z,100.00
2022-12-23T21:26:55.570Z,100.00
2022-12-23T21:29:44.411Z,100.00
2022-12-23T21:32:32.912Z,100.00
2022-12-23T21:35:22.126Z,100.00
2022-12-23T21:38:09.572Z,100.00
2022-12-23T21:41:01.111Z,100.00
2022-12-23T21:43:48.598Z,100.00
2022-12-23T21:46:36.287Z,100.00
2022-12-23T21:49:24.251Z,100.00
2022-12-23T21:52:13.235Z,100.00
2022-12-23T21:55:01.115Z,100.00
2022-12-23T21:57:48.873Z,100.00
2022-12-23T22:00:36.370Z,100.00
2022-12-23T22:03:24.075Z,100.00
2022-12-23T22:06:14.823Z,100.00
2022-12-23T22:09:04.413Z,100.00
2022-12-23T22:11:52.034Z,100.00
2022-12-23T22:14:39.889Z,100.00
2022-12-23T22:17:27.278Z,100.00
2022-12-23T22:20:14.723Z,100.00
2022-12-23T22:23:03.688Z,100.00
2022-12-23T22:26:25.631Z,100.00
2022-12-23T22:29:14.167Z,100.00
2022-12-23T22:32:01.465Z,100.00
2022-12-23T22:34:48.933Z,100.00
2022-12-23T22:37:36.684Z,100.00
2022-12-23T22:40:24.624Z,100.00
2022-12-23T22:43:13.713Z,100.00
2022-12-23T22:46:03.048Z,100.00
2022-12-23T22:48:50.811Z,100.00
2022-12-23T22:51:38.275Z,100.00
2022-12-23T22:54:25.958Z,100.00
2022-12-23T22:57:14.389Z,100.00
2022-12-23T23:00:09.641Z,100.00
2022-12-23T23:02:59.336Z,100.00
2022-12-23T23:05:56.146Z,100.00
2022-12-23T23:08:44.568Z,100.00
2022-12-23T23:11:31.957Z,100.00
2022-12-23T23:14:20.092Z,100.00
2022-12-23T23:17:09.496Z,100.00
2022-12-23T23:19:57.363Z,100.00
2022-12-23T23:22:44.783Z,100.00
2022-12-23T23:25:32.517Z,100.00
2022-12-23T23:28:20.412Z,100.00
2022-12-23T23:34:18.292Z,100.00
2022-12-23T23:37:06.147Z,100.00
2022-12-23T23:39:53.780Z,100.00
2022-12-23T23:42:41.174Z,100.00
2022-12-23T23:45:30.598Z,100.00
2022-12-23T23:48:19.414Z,100.00
2022-12-23T23:51:08.905Z,100.00
2022-12-23T23:53:58.758Z,100.00
2022-12-23T23:56:46.596Z,100.00
2022-12-23T23:59:34.514Z,100.00
